createdAt,value
2017-05-27T00:00:18.524Z,37.77
2017-05-27T00:01:28.246Z,37.96
2017-05-27T00:02:38.513Z,37.77
2017-05-27T00:03:48.437Z,37.87
2017-05-27T00:04:58.071Z,37.96
2017-05-27T00:06:07.387Z,37.96
2017-05-27T00:07:16.234Z,37.57
2017-05-27T00:08:25.865Z,38.15
2017-05-27T00:09:36.111Z,38.15
2017-05-27T00:10:46.344Z,38.06
2017-05-27T00:11:56.269Z,37.96
2017-05-27T00:13:06.570Z,37.77
2017-05-27T00:14:16.828Z,37.87
2017-05-27T00:15:26.145Z,37.87
2017-05-27T00:16:36.378Z,37.87
2017-05-27T00:17:46.325Z,37.87
2017-05-27T00:18:56.256Z,37.67
2017-05-27T00:20:06.205Z,37.77
2017-05-27T00:21:16.125Z,37.67
2017-05-27T00:22:25.140Z,38.15
2017-05-27T00:23:34.769Z,37.96
2017-05-27T00:24:45.052Z,38.13
2017-05-27T00:25:55.286Z,37.75
2017-05-27T00:27:04.597Z,38.04
2017-05-27T00:28:14.217Z,37.94
2017-05-27T00:29:24.157Z,38.15
2017-05-27T00:30:34.488Z,37.75
2017-05-27T00:31:44.416Z,38.06
2017-05-27T00:32:54.651Z,37.96
2017-05-27T00:34:04.883Z,38.04
2017-05-27T00:35:14.518Z,38.04
2017-05-27T00:36:23.831Z,37.94
2017-05-27T00:37:33.760Z,37.85
2017-05-27T00:38:44.011Z,37.85
2017-05-27T00:39:54.311Z,37.94
2017-05-27T00:41:04.243Z,38.06
2017-05-27T00:42:14.823Z,37.85
2017-05-27T00:43:24.437Z,37.85
2017-05-27T00:44:34.061Z,37.94
2017-05-27T00:45:44.284Z,37.94
2017-05-27T00:46:54.215Z,37.85
2017-05-27T00:48:04.495Z,37.85
2017-05-27T00:49:14.430Z,37.75
2017-05-27T00:50:24.694Z,37.77
2017-05-27T00:51:34.621Z,37.87
2017-05-27T00:52:44.239Z,37.94
2017-05-27T00:53:53.572Z,38.04
2017-05-27T00:55:03.807Z,38.23
2017-05-27T00:56:13.414Z,38.23
2017-05-27T00:57:23.352Z,38.23
2017-05-27T00:58:33.298Z,38.33
2017-05-27T00:59:43.705Z,38.62
2017-05-27T01:00:53.623Z,38.23
2017-05-27T01:02:03.241Z,38.43
2017-05-27T01:03:13.177Z,38.53
2017-05-27T01:04:22.806Z,38.62
2017-05-27T01:05:32.584Z,38.62
2017-05-27T01:06:42.503Z,38.53
2017-05-27T01:07:52.737Z,38.43
2017-05-27T01:09:02.358Z,38.53
2017-05-27T01:10:12.288Z,38.53
2017-05-27T01:11:22.363Z,38.43
2017-05-27T01:12:32.289Z,38.43
2017-05-27T01:13:42.530Z,38.43
2017-05-27T01:14:52.457Z,38.43
2017-05-27T01:16:02.072Z,38.33
2017-05-27T01:17:12.191Z,38.33
2017-05-27T01:18:22.138Z,38.43
2017-05-27T01:19:32.074Z,38.62
2017-05-27T01:20:41.998Z,38.33
2017-05-27T01:21:52.253Z,38.33
2017-05-27T01:23:02.634Z,38.43
2017-05-27T01:24:11.639Z,38.43
2017-05-27T01:25:21.562Z,38.62
2017-05-27T01:26:31.487Z,38.43
2017-05-27T01:27:41.415Z,38.43
2017-05-27T01:28:51.648Z,38.62
2017-05-27T01:30:01.568Z,38.33
2017-05-27T01:31:11.492Z,38.53
2017-05-27T01:32:21.125Z,38.43
2017-05-27T01:33:31.361Z,38.62
2017-05-27T01:34:41.289Z,38.43
2017-05-27T01:35:51.216Z,38.43
2017-05-27T01:37:01.444Z,38.43
2017-05-27T01:38:11.079Z,38.62
2017-05-27T01:39:20.693Z,38.43
2017-05-27T01:40:30.420Z,38.62
2017-05-27T01:41:40.660Z,38.62
2017-05-27T01:42:49.974Z,38.43
2017-05-27T01:43:59.613Z,38.53
2017-05-27T01:45:09.292Z,38.53
2017-05-27T01:46:19.692Z,38.33
2017-05-27T01:47:29.658Z,38.43
2017-05-27T01:48:39.291Z,38.43
2017-05-27T01:49:49.223Z,38.53
2017-05-27T01:50:58.540Z,38.43
2017-05-27T01:52:08.625Z,38.43
2017-05-27T01:53:18.600Z,38.43
2017-05-27T01:54:28.832Z,38.33
2017-05-27T01:55:38.768Z,38.43
2017-05-27T01:56:48.702Z,38.43
2017-05-27T01:57:58.645Z,38.43
2017-05-27T01:59:08.570Z,38.33
2017-05-27T02:00:18.501Z,38.33
2017-05-27T02:01:28.134Z,38.23
2017-05-27T02:02:38.078Z,38.5
2017-05-27T02:03:48.625Z,38.43
2017-05-27T02:04:58.253Z,38.43
2017-05-27T02:06:08.183Z,38.31
2017-05-27T02:07:17.486Z,38.53
2017-05-27T02:08:27.107Z,38.33
2017-05-27T02:09:36.785Z,38.43
2017-05-27T02:10:46.726Z,38.41
2017-05-27T02:11:56.663Z,38.33
2017-05-27T02:13:06.601Z,38.12
2017-05-27T02:14:16.531Z,38.23
2017-05-27T02:15:26.482Z,38.53
2017-05-27T02:16:36.714Z,38.53
2017-05-27T02:17:46.025Z,38.23
2017-05-27T02:18:55.657Z,38.62
2017-05-27T02:20:04.987Z,38.5
2017-05-27T02:21:14.721Z,38.79
2017-05-27T02:22:24.982Z,38.71
2017-05-27T02:23:34.602Z,38.6
2017-05-27T02:24:44.840Z,38.79
2017-05-27T02:25:54.460Z,38.7
2017-05-27T02:27:03.765Z,38.7
2017-05-27T02:28:13.997Z,38.89
2017-05-27T02:29:23.374Z,38.7
2017-05-27T02:30:33.530Z,38.79
2017-05-27T02:31:43.466Z,38.7
2017-05-27T02:32:53.233Z,38.79
2017-05-27T02:34:03.468Z,38.79
2017-05-27T02:35:13.398Z,38.89
2017-05-27T02:36:23.022Z,38.79
2017-05-27T02:37:32.947Z,38.99
2017-05-27T02:38:42.983Z,39.09
2017-05-27T02:39:52.600Z,38.99
2017-05-27T02:41:02.826Z,39.09
2017-05-27T02:42:12.748Z,39.18
2017-05-27T02:43:22.994Z,39.37
2017-05-27T02:44:33.037Z,39.47
2017-05-27T02:45:42.667Z,39.47
2017-05-27T02:46:52.283Z,39.47
2017-05-27T02:48:02.530Z,39.57
2017-05-27T02:49:12.511Z,39.57
2017-05-27T02:50:23.105Z,39.47
2017-05-27T02:51:33.343Z,39.37
2017-05-27T02:52:42.670Z,39.28
2017-05-27T02:53:53.296Z,39.37
2017-05-27T02:55:02.915Z,38.99
2017-05-27T02:56:12.885Z,39.37
2017-05-27T02:57:22.515Z,39.09
2017-05-27T02:58:32.747Z,39.09
2017-05-27T02:59:42.396Z,39.18
2017-05-27T03:00:52.622Z,39.18
2017-05-27T03:02:02.852Z,39.28
2017-05-27T03:03:12.777Z,38.99
2017-05-27T03:04:23.017Z,39.74
2017-05-27T03:05:33.246Z,39.74
2017-05-27T03:06:43.235Z,39.76
2017-05-27T03:07:53.499Z,39.67
2017-05-27T03:09:03.434Z,39.64
2017-05-27T03:10:13.360Z,39.55
2017-05-27T03:11:23.605Z,39.67
2017-05-27T03:12:33.844Z,39.67
2017-05-27T03:13:43.939Z,39.67
2017-05-27T03:14:54.572Z,39.47
2017-05-27T03:16:04.495Z,39.76
2017-05-27T03:17:13.809Z,39.74
2017-05-27T03:18:23.428Z,39.36
2017-05-27T03:19:33.469Z,39.45
2017-05-27T03:20:43.713Z,39.55
2017-05-27T03:21:52.729Z,39.64
2017-05-27T03:23:02.655Z,39.74
2017-05-27T03:24:12.581Z,39.64
2017-05-27T03:25:22.060Z,39.94
2017-05-27T03:26:32.303Z,39.84
2017-05-27T03:27:42.245Z,39.84
2017-05-27T03:28:52.174Z,39.94
2017-05-27T03:30:02.422Z,40.03
2017-05-27T03:31:11.789Z,39.94
2017-05-27T03:32:22.026Z,39.84
2017-05-27T03:33:31.676Z,39.94
2017-05-27T03:34:41.915Z,39.94
2017-05-27T03:35:52.143Z,40.03
2017-05-27T03:37:01.927Z,40.03
2017-05-27T03:38:11.548Z,39.84
2017-05-27T03:39:21.773Z,39.84
2017-05-27T03:40:31.701Z,39.84
2017-05-27T03:41:41.626Z,39.94
2017-05-27T03:42:51.249Z,39.84
2017-05-27T03:44:01.197Z,40.03
2017-05-27T03:45:11.202Z,40.03
2017-05-27T03:46:21.433Z,40.13
2017-05-27T03:47:31.043Z,40.03
2017-05-27T03:48:40.982Z,39.94
2017-05-27T03:49:50.905Z,39.94
2017-05-27T03:51:00.536Z,40.13
2017-05-27T03:52:10.153Z,39.94
2017-05-27T03:53:20.403Z,39.64
2017-05-27T03:54:29.514Z,40.01
2017-05-27T03:55:39.771Z,40.13
2017-05-27T03:56:50.017Z,40.13
2017-05-27T03:58:00.243Z,40.13
2017-05-27T03:59:10.213Z,40.03
2017-05-27T04:00:20.492Z,40.13
2017-05-27T04:01:30.435Z,40.03
2017-05-27T04:02:40.371Z,39.84
2017-05-27T04:03:50.003Z,39.94
2017-05-27T04:05:00.244Z,39.94
2017-05-27T04:06:10.321Z,39.84
2017-05-27T04:07:19.930Z,39.84
2017-05-27T04:08:30.198Z,40.23
2017-05-27T04:09:40.426Z,39.84
2017-05-27T04:10:50.654Z,40.13
2017-05-27T04:12:00.325Z,40.11
2017-05-27T04:13:10.558Z,39.84
2017-05-27T04:14:21.177Z,39.94
2017-05-27T04:15:30.794Z,40.13
2017-05-27T04:16:40.105Z,40.13
2017-05-27T04:17:50.333Z,40.2
2017-05-27T04:19:00.332Z,39.82
2017-05-27T04:20:10.254Z,39.84
2017-05-27T04:21:20.502Z,40.13
2017-05-27T04:22:30.750Z,40.03
2017-05-27T04:23:40.521Z,40.03
2017-05-27T04:24:50.774Z,40.13
2017-05-27T04:26:00.701Z,40.23
2017-05-27T04:27:09.730Z,40.13
2017-05-27T04:28:19.344Z,40.13
2017-05-27T04:29:29.730Z,40.11
2017-05-27T04:30:39.978Z,40.03
2017-05-27T04:31:49.600Z,40.03
2017-05-27T04:32:59.834Z,39.84
2017-05-27T04:34:10.087Z,39.84
2017-05-27T04:35:20.493Z,39.84
2017-05-27T04:36:30.432Z,40.13
2017-05-27T04:37:40.081Z,40.03
2017-05-27T04:38:49.413Z,40.13
2017-05-27T04:39:59.093Z,40.13
2017-05-27T04:41:08.505Z,40.13
2017-05-27T04:42:18.142Z,40.13
2017-05-27T04:43:28.410Z,40.13
2017-05-27T04:44:38.790Z,40.23
2017-05-27T04:45:48.430Z,39.94
2017-05-27T04:46:58.530Z,40.03
2017-05-27T04:48:08.480Z,39.74
2017-05-27T04:49:18.410Z,39.94
2017-05-27T04:50:28.370Z,39.84
2017-05-27T04:51:38.325Z,39.84
2017-05-27T04:52:48.289Z,39.94
2017-05-27T04:53:57.940Z,39.94
2017-05-27T04:55:08.232Z,40.03
2017-05-27T04:56:17.863Z,39.94
2017-05-27T04:57:27.488Z,39.74
2017-05-27T04:58:37.488Z,39.84
2017-05-27T04:59:47.149Z,40.03
2017-05-27T05:00:57.435Z,39.84
2017-05-27T05:02:06.472Z,39.94
2017-05-27T05:03:16.097Z,39.84
2017-05-27T05:04:26.082Z,39.84
2017-05-27T05:05:36.012Z,39.36
2017-05-27T05:06:45.662Z,39.26
2017-05-27T05:07:55.627Z,39.28
2017-05-27T05:09:05.552Z,39.57
2017-05-27T05:10:15.785Z,39.67
2017-05-27T05:11:25.727Z,39.36
2017-05-27T05:12:35.981Z,39.09
2017-05-27T05:13:46.282Z,39.28
2017-05-27T05:14:56.615Z,39.57
2017-05-27T05:16:07.202Z,38.89
2017-05-27T05:17:17.526Z,38.89
2017-05-27T05:18:27.209Z,38.71
2017-05-27T05:19:37.433Z,38.43
2017-05-27T05:20:47.110Z,38.81
2017-05-27T05:21:57.298Z,38.33
2017-05-27T05:23:08.067Z,37.85
2017-05-27T05:24:17.943Z,37.77
2017-05-27T05:25:28.679Z,37.77
2017-05-27T05:26:38.961Z,37.96
2017-05-27T05:27:48.663Z,37.77
2017-05-27T05:28:57.980Z,37.67
2017-05-27T05:30:08.230Z,37.49
2017-05-27T05:31:18.406Z,37.4
2017-05-27T05:32:28.410Z,37.3
2017-05-27T05:33:38.499Z,37.11
2017-05-27T05:34:48.427Z,37.13
2017-05-27T05:35:58.482Z,37.03
2017-05-27T05:37:09.622Z,36.83
2017-05-27T05:38:19.237Z,36.83
2017-05-27T05:39:28.858Z,36.35
2017-05-27T05:40:38.794Z,36.64
2017-05-27T05:41:49.309Z,36.27
2017-05-27T05:43:00.028Z,36.27
2017-05-27T05:44:10.029Z,35.88
2017-05-27T05:45:20.302Z,36.08
2017-05-27T05:46:29.985Z,35.98
2017-05-27T05:47:39.303Z,36
2017-05-27T05:48:49.534Z,35.71
2017-05-27T05:49:59.767Z,35.61
2017-05-27T05:51:09.694Z,35.32
2017-05-27T05:52:19.923Z,35.41
2017-05-27T05:53:29.551Z,35.41
2017-05-27T05:54:39.168Z,35.24
2017-05-27T05:55:49.090Z,35.33
2017-05-27T05:56:59.155Z,35.43
2017-05-27T05:58:09.377Z,34.75
2017-05-27T05:59:19.601Z,34.67
2017-05-27T06:00:29.859Z,34.87
2017-05-27T06:01:39.769Z,34.67
2017-05-27T06:02:49.229Z,34.28
2017-05-27T06:03:59.159Z,34.48
2017-05-27T06:05:08.777Z,34.69
2017-05-27T06:06:18.692Z,34.3
2017-05-27T06:07:28.309Z,34.4
2017-05-27T06:08:38.413Z,34.01
2017-05-27T06:09:48.023Z,34.12
2017-05-27T06:10:57.624Z,33.93
2017-05-27T06:12:07.865Z,33.73
2017-05-27T06:13:17.481Z,33.34
2017-05-27T06:14:26.833Z,33.54
2017-05-27T06:15:36.466Z,33.64
2017-05-27T06:16:46.384Z,33.56
2017-05-27T06:17:55.703Z,33.36
2017-05-27T06:19:05.988Z,33.46
2017-05-27T06:20:16.377Z,33.46
2017-05-27T06:21:26.620Z,33.36
2017-05-27T06:22:36.546Z,33.26
2017-05-27T06:23:46.482Z,33.65
2017-05-27T06:24:55.797Z,33.56
2017-05-27T06:26:06.063Z,33.65
2017-05-27T06:27:15.737Z,33.56
2017-05-27T06:28:25.051Z,33.26
2017-05-27T06:29:34.981Z,33.56
2017-05-27T06:30:44.651Z,33.75
2017-05-27T06:31:54.364Z,33.75
2017-05-27T06:33:03.970Z,33.36
2017-05-27T06:34:14.208Z,33.93
2017-05-27T06:35:24.136Z,34.14
2017-05-27T06:36:34.073Z,34.42
2017-05-27T06:37:44.137Z,34.22
2017-05-27T06:38:53.762Z,34.7
2017-05-27T06:40:03.380Z,34.52
2017-05-27T06:41:13.005Z,34.52
2017-05-27T06:42:22.632Z,34.52
2017-05-27T06:43:32.861Z,34.98
2017-05-27T06:44:42.790Z,34.59
2017-05-27T06:45:52.716Z,34.98
2017-05-27T06:47:02.938Z,35.37
2017-05-27T06:48:13.156Z,35.37
2017-05-27T06:49:22.817Z,35.27
2017-05-27T06:50:33.053Z,35.57
2017-05-27T06:51:42.974Z,34.88
2017-05-27T06:52:52.899Z,34.4
2017-05-27T06:54:03.131Z,34.3
2017-05-27T06:55:13.101Z,34.32
2017-05-27T06:56:23.080Z,33.36
2017-05-27T06:57:33.305Z,33.65
2017-05-27T06:58:43.254Z,32.97
2017-05-27T06:59:52.869Z,32.79
2017-05-27T07:01:03.102Z,32.32
2017-05-27T07:02:13.337Z,31.84
2017-05-27T07:03:23.270Z,31.56
2017-05-27T07:04:32.895Z,31.19
2017-05-27T07:05:42.515Z,30.81
2017-05-27T07:06:52.787Z,30.24
2017-05-27T07:08:02.710Z,30.15
2017-05-27T07:09:12.655Z,29.47
2017-05-27T07:10:22.598Z,29.3
2017-05-27T07:11:32.226Z,29
2017-05-27T07:12:41.996Z,28.72
2017-05-27T07:13:51.630Z,28.15
2017-05-27T07:15:01.876Z,27.97
2017-05-27T07:16:11.178Z,27.87
2017-05-27T07:17:21.107Z,27.2
2017-05-27T07:18:31.181Z,26.92
2017-05-27T07:19:40.844Z,26.73
2017-05-27T07:20:50.468Z,26.34
2017-05-27T07:22:00.695Z,25.96
2017-05-27T07:23:10.622Z,25.88
2017-05-27T07:24:20.948Z,25.49
2017-05-27T07:25:30.255Z,24.81
2017-05-27T07:26:40.497Z,25.02
2017-05-27T07:27:50.741Z,24.64
2017-05-27T07:29:00.968Z,24.44
2017-05-27T07:30:10.276Z,23.96
2017-05-27T07:31:19.895Z,23.96
2017-05-27T07:32:29.827Z,23.78
2017-05-27T07:33:39.748Z,23.69
2017-05-27T07:34:50.021Z,23.69
2017-05-27T07:35:59.939Z,23.2
2017-05-27T07:37:09.860Z,23.31
2017-05-27T07:38:20.082Z,23.11
2017-05-27T07:39:30.004Z,22.93
2017-05-27T07:40:39.933Z,22.93
2017-05-27T07:41:49.897Z,22.74
2017-05-27T07:43:00.122Z,22.45
2017-05-27T07:44:09.428Z,22.26
2017-05-27T07:45:19.357Z,22.26
2017-05-27T07:46:28.976Z,22.37
2017-05-27T07:47:38.331Z,21.78
2017-05-27T07:48:48.266Z,22.08
2017-05-27T07:49:58.498Z,21.89
2017-05-27T07:51:08.104Z,21.79
2017-05-27T07:52:18.037Z,21.6
2017-05-27T07:53:27.698Z,21.7
2017-05-27T07:54:37.002Z,21.7
2017-05-27T07:55:46.927Z,21.61
2017-05-27T07:56:56.537Z,21.61
2017-05-27T07:58:06.168Z,21.22
2017-05-27T07:59:16.252Z,21.32
2017-05-27T08:00:26.195Z,21.23
2017-05-27T08:01:36.130Z,21.03
2017-05-27T08:02:45.749Z,21.23
2017-05-27T08:03:55.675Z,20.94
2017-05-27T08:05:05.742Z,20.84
2017-05-27T08:06:15.351Z,20.75
2017-05-27T08:07:25.577Z,20.56
2017-05-27T08:08:35.797Z,20.56
2017-05-27T08:09:45.723Z,20.65
2017-05-27T08:10:55.339Z,20.56
2017-05-27T08:12:04.945Z,20.86
2017-05-27T08:13:14.286Z,20.67
2017-05-27T08:14:23.904Z,20.37
2017-05-27T08:15:34.130Z,20.27
2017-05-27T08:16:43.844Z,20.37
2017-05-27T08:17:53.769Z,20.48
2017-05-27T08:19:03.691Z,20.48
2017-05-27T08:20:13.368Z,20.38
2017-05-27T08:21:23.585Z,20.38
2017-05-27T08:22:33.682Z,19.98
2017-05-27T08:23:43.299Z,20.09
2017-05-27T08:24:53.219Z,20.19
2017-05-27T08:26:03.141Z,20.09
2017-05-27T08:27:12.503Z,20.49
2017-05-27T08:28:22.527Z,20.39
2017-05-27T08:29:32.168Z,20.19
2017-05-27T08:30:42.409Z,20.19
2017-05-27T08:31:52.343Z,20.1
2017-05-27T08:33:01.354Z,20.2
2017-05-27T08:34:11.431Z,20.2
2017-05-27T08:35:21.053Z,20.2
2017-05-27T08:36:31.287Z,20.1
2017-05-27T08:37:40.895Z,20.3
2017-05-27T08:38:50.816Z,20.1
2017-05-27T08:40:01.262Z,20.4
2017-05-27T08:41:10.884Z,20.89
2017-05-27T08:42:21.122Z,21.18
2017-05-27T08:43:31.040Z,21.96
2017-05-27T08:44:40.968Z,22.53
2017-05-27T08:45:51.250Z,23.22
2017-05-27T08:47:01.167Z,23.69
2017-05-27T08:48:11.101Z,24.27
2017-05-27T08:49:20.733Z,25.13
2017-05-27T08:50:30.347Z,25.61
2017-05-27T08:51:39.974Z,26.08
2017-05-27T08:52:50.216Z,27.05
2017-05-27T08:54:00.145Z,27.14
2017-05-27T08:55:09.770Z,28
2017-05-27T08:56:20.010Z,28.29
2017-05-27T08:57:29.738Z,28.27
2017-05-27T08:58:39.661Z,29.24
2017-05-27T08:59:49.264Z,29.52
2017-05-27T09:00:59.191Z,29.9
2017-05-27T09:02:08.822Z,30.08
2017-05-27T09:03:18.207Z,30.75
2017-05-27T09:04:28.439Z,30.75
2017-05-27T09:05:38.464Z,31.13
2017-05-27T09:06:49.113Z,31.6
2017-05-27T09:07:59.343Z,31.7
2017-05-27T09:09:08.678Z,32.07
2017-05-27T09:10:18.609Z,32.45
2017-05-27T09:11:28.834Z,33.04
2017-05-27T09:12:38.852Z,32.92
2017-05-27T09:13:48.193Z,33.22
2017-05-27T09:14:58.435Z,33.59
2017-05-27T09:16:08.046Z,33.89
2017-05-27T09:17:17.965Z,33.87
2017-05-27T09:18:27.882Z,34.55
2017-05-27T09:19:37.807Z,34.24
2017-05-27T09:20:47.739Z,34.34
2017-05-27T09:21:57.666Z,34.63
2017-05-27T09:23:07.284Z,34.71
2017-05-27T09:24:17.207Z,34.91
2017-05-27T09:25:26.838Z,34.89
2017-05-27T09:26:37.065Z,35.28
2017-05-27T09:27:46.689Z,35.67
2017-05-27T09:28:56.323Z,35.38
2017-05-27T09:30:06.250Z,35.38
2017-05-27T09:31:15.562Z,35.55
2017-05-27T09:32:25.173Z,35.65
2017-05-27T09:33:34.787Z,35.94
2017-05-27T09:34:44.794Z,35.75
2017-05-27T09:35:55.031Z,36.02
2017-05-27T09:37:04.648Z,36.02
2017-05-27T09:38:14.257Z,36.12
2017-05-27T09:39:24.177Z,36.12
2017-05-27T09:40:34.092Z,36.41
2017-05-27T09:41:44.360Z,36.2
2017-05-27T09:42:54.601Z,36.4
2017-05-27T09:44:03.908Z,36.49
2017-05-27T09:45:13.838Z,36.4
2017-05-27T09:46:23.456Z,36.79
2017-05-27T09:47:33.386Z,36.4
2017-05-27T09:48:43.609Z,36.59
2017-05-27T09:49:53.218Z,36.57
2017-05-27T09:51:02.864Z,36.67
2017-05-27T09:52:12.787Z,36.57
2017-05-27T09:53:22.424Z,36.87
2017-05-27T09:54:32.063Z,37.06
2017-05-27T09:55:41.691Z,36.96
2017-05-27T09:56:50.381Z,36.96
2017-05-27T09:58:00.342Z,36.87
2017-05-27T09:59:10.261Z,36.96
2017-05-27T10:00:19.274Z,37.14
2017-05-27T10:01:28.890Z,36.85
2017-05-27T10:02:37.882Z,37.14
2017-05-27T10:03:46.920Z,36.94
2017-05-27T10:04:56.583Z,37.14
2017-05-27T10:06:05.591Z,37.04
2017-05-27T10:07:14.924Z,37.04
2017-05-27T10:08:23.945Z,37.04
2017-05-27T10:09:33.257Z,37.04
2017-05-27T10:10:42.887Z,36.94
2017-05-27T10:11:52.799Z,36.85
2017-05-27T10:13:03.018Z,37.04
2017-05-27T10:14:12.323Z,37.04
2017-05-27T10:15:22.252Z,36.85
2017-05-27T10:16:32.183Z,36.83
2017-05-27T10:17:42.117Z,36.93
2017-05-27T10:18:52.038Z,36.73
2017-05-27T10:20:01.965Z,36.63
2017-05-27T10:21:11.579Z,36.83
2017-05-27T10:22:21.496Z,36.83
2017-05-27T10:23:31.715Z,36.93
2017-05-27T10:24:41.941Z,36.83
2017-05-27T10:25:51.869Z,36.63
2017-05-27T10:27:01.786Z,36.83
2017-05-27T10:28:11.125Z,36.63
2017-05-27T10:29:20.732Z,36.83
2017-05-27T10:30:30.673Z,36.83
2017-05-27T10:31:40.913Z,36.83
2017-05-27T10:32:50.534Z,37.12
2017-05-27T10:34:00.156Z,36.93
2017-05-27T10:35:10.079Z,36.93
2017-05-27T10:36:19.990Z,37.12
2017-05-27T10:37:29.284Z,37.02
2017-05-27T10:38:38.277Z,36.93
2017-05-27T10:39:48.209Z,37.02
2017-05-27T10:40:57.822Z,37.02
2017-05-27T10:42:07.746Z,36.83
2017-05-27T10:43:17.374Z,36.93
2017-05-27T10:44:26.995Z,36.83
2017-05-27T10:45:37.220Z,36.93
2017-05-27T10:46:47.455Z,36.93
2017-05-27T10:47:56.764Z,37.02
2017-05-27T10:49:06.373Z,36.93
2017-05-27T10:50:16.621Z,36.93
2017-05-27T10:51:26.878Z,36.93
2017-05-27T10:52:37.109Z,36.83
2017-05-27T10:53:46.726Z,36.63
2017-05-27T10:54:56.346Z,36.73
2017-05-27T10:56:06.572Z,36.73
2017-05-27T10:57:16.503Z,36.63
2017-05-27T10:58:26.127Z,36.63
2017-05-27T10:59:35.735Z,36.73
2017-05-27T11:00:45.649Z,36.63
2017-05-27T11:01:55.877Z,36.63
2017-05-27T11:03:05.791Z,36.83
2017-05-27T11:04:15.717Z,36.73
2017-05-27T11:05:25.641Z,36.73
2017-05-27T11:06:35.560Z,36.73
2017-05-27T11:07:45.181Z,36.83
2017-05-27T11:08:54.488Z,36.91
2017-05-27T11:10:03.489Z,36.81
2017-05-27T11:11:12.851Z,36.93
2017-05-27T11:12:22.764Z,36.81
2017-05-27T11:13:32.997Z,36.91
2017-05-27T11:14:42.914Z,37.01
2017-05-27T11:15:52.826Z,36.81
2017-05-27T11:17:02.739Z,37.01
2017-05-27T11:18:12.660Z,36.91
2017-05-27T11:19:22.290Z,36.91
2017-05-27T11:20:32.509Z,36.91
2017-05-27T11:21:42.736Z,36.91
2017-05-27T11:22:52.658Z,36.91
2017-05-27T11:24:02.276Z,36.91
2017-05-27T11:25:11.885Z,36.91
2017-05-27T11:26:21.199Z,36.91
2017-05-27T11:27:31.018Z,36.91
2017-05-27T11:28:40.318Z,36.91
2017-05-27T11:29:49.929Z,36.91
2017-05-27T11:30:59.845Z,37.01
2017-05-27T11:32:09.769Z,36.81
2017-05-27T11:33:20.003Z,36.91
2017-05-27T11:34:29.613Z,37.01
2017-05-27T11:35:39.549Z,36.81
2017-05-27T11:36:49.473Z,36.91
2017-05-27T11:37:59.393Z,36.81
2017-05-27T11:39:09.626Z,36.91
2017-05-27T11:40:19.255Z,37.01
2017-05-27T11:41:28.927Z,36.91
2017-05-27T11:42:38.841Z,36.81
2017-05-27T11:43:48.749Z,37.01
2017-05-27T11:44:58.050Z,37.01
2017-05-27T11:46:08.274Z,36.81
2017-05-27T11:47:17.885Z,36.81
2017-05-27T11:48:27.188Z,37.01
2017-05-27T11:49:36.804Z,37.01
2017-05-27T11:50:47.032Z,37.01
2017-05-27T11:51:56.960Z,36.91
2017-05-27T11:53:06.271Z,36.91
2017-05-27T11:54:15.575Z,37.01
2017-05-27T11:55:25.796Z,37.01
2017-05-27T11:56:35.407Z,36.81
2017-05-27T11:57:45.630Z,36.91
2017-05-27T11:58:54.942Z,36.91
2017-05-27T12:00:04.862Z,36.81
2017-05-27T12:01:14.161Z,37.01
2017-05-27T12:02:24.079Z,36.91
2017-05-27T12:03:33.692Z,36.81
2017-05-27T12:04:43.920Z,37.01
2017-05-27T12:05:53.853Z,36.91
2017-05-27T12:07:03.478Z,36.81
2017-05-27T12:08:12.793Z,36.91
2017-05-27T12:09:22.098Z,37.01
2017-05-27T12:10:32.327Z,36.91
2017-05-27T12:11:42.674Z,36.91
2017-05-27T12:12:53.362Z,36.71
2017-05-27T12:14:03.276Z,36.81
2017-05-27T12:15:13.507Z,36.81
2017-05-27T12:16:22.804Z,36.91
2017-05-27T12:17:32.791Z,36.81
2017-05-27T12:18:42.479Z,36.61
2017-05-27T12:19:52.404Z,36.91
2017-05-27T12:21:03.211Z,36.81
2017-05-27T12:22:13.455Z,36.61
2017-05-27T12:23:23.153Z,36.71
2017-05-27T12:24:32.844Z,36.91
2017-05-27T12:25:42.850Z,36.71
2017-05-27T12:26:53.079Z,36.71
2017-05-27T12:28:02.696Z,36.91
2017-05-27T12:29:12.927Z,36.81
2017-05-27T12:30:23.930Z,36.81
2017-05-27T12:31:34.742Z,36.61
2017-05-27T12:32:44.386Z,36.71
2017-05-27T12:33:54.638Z,36.81
2017-05-27T12:35:03.955Z,36.71
2017-05-27T12:36:14.259Z,36.71
2017-05-27T12:37:24.583Z,36.71
2017-05-27T12:38:34.220Z,36.81
2017-05-27T12:39:43.833Z,36.71
2017-05-27T12:40:54.080Z,36.71
2017-05-27T12:42:04.020Z,36.71
2017-05-27T12:43:14.240Z,36.71
2017-05-27T12:44:23.561Z,36.71
2017-05-27T12:45:33.911Z,36.71
2017-05-27T12:46:43.909Z,36.61
2017-05-27T12:47:54.319Z,36.61
2017-05-27T12:49:04.554Z,36.81
2017-05-27T12:50:14.479Z,36.71
2017-05-27T12:51:23.926Z,36.61
2017-05-27T12:52:33.552Z,36.61
2017-05-27T12:53:44.174Z,36.42
2017-05-27T12:54:53.329Z,36.52
2017-05-27T12:56:02.734Z,36.52
2017-05-27T12:57:12.365Z,36.42
2017-05-27T12:58:21.366Z,36.61
2017-05-27T12:59:30.118Z,36.61
2017-05-27T13:00:39.667Z,36.61
2017-05-27T13:01:49.070Z,36.61
2017-05-27T13:02:58.461Z,36.52
2017-05-27T13:04:08.081Z,36.61
2017-05-27T13:05:18.014Z,36.61
2017-05-27T13:06:27.257Z,36.71
2017-05-27T13:07:36.978Z,36.61
2017-05-27T13:08:46.673Z,36.52
2017-05-27T13:09:56.383Z,36.61
2017-05-27T13:11:06.687Z,36.61
2017-05-27T13:12:16.630Z,36.71
2017-05-27T13:13:26.789Z,36.52
2017-05-27T13:14:36.484Z,36.52
2017-05-27T13:15:46.730Z,36.61
2017-05-27T13:16:57.202Z,36.52
2017-05-27T13:18:06.569Z,36.54
2017-05-27T13:19:16.188Z,36.61
2017-05-27T13:20:25.811Z,36.52
2017-05-27T13:21:35.725Z,36.44
2017-05-27T13:22:45.445Z,36.42
2017-05-27T13:23:55.353Z,36.44
2017-05-27T13:25:06.062Z,36.44
2017-05-27T13:26:15.986Z,36.44
2017-05-27T13:27:26.316Z,36.42
2017-05-27T13:28:36.292Z,36.52
2017-05-27T13:29:46.570Z,36.44
2017-05-27T13:30:55.966Z,36.54
2017-05-27T13:32:06.124Z,36.34
2017-05-27T13:33:15.737Z,36.15
2017-05-27T13:34:25.852Z,36.15
2017-05-27T13:35:35.317Z,36.15
2017-05-27T13:36:45.261Z,36.34
2017-05-27T13:37:55.436Z,36.24
2017-05-27T13:39:04.862Z,36.24
2017-05-27T13:40:14.539Z,36.15
2017-05-27T13:41:24.939Z,36.24
2017-05-27T13:42:35.982Z,36.44
2017-05-27T13:43:46.304Z,36.34
2017-05-27T13:44:56.304Z,36.05
2017-05-27T13:46:05.987Z,36.24
2017-05-27T13:47:15.443Z,36.05
2017-05-27T13:48:26.095Z,36.15
2017-05-27T13:49:36.196Z,36.15
2017-05-27T13:50:45.888Z,36.15
2017-05-27T13:51:56.149Z,36.34
2017-05-27T13:53:05.851Z,36.34
2017-05-27T13:54:15.840Z,36.34
2017-05-27T13:55:25.555Z,36.44
2017-05-27T13:56:35.726Z,36.15
2017-05-27T13:57:46.064Z,36.15
2017-05-27T13:58:56.941Z,36.54
2017-05-27T14:00:06.725Z,36.34
2017-05-27T14:01:17.027Z,36.44
2017-05-27T14:02:27.652Z,36.54
2017-05-27T14:03:37.962Z,36.34
2017-05-27T14:04:48.212Z,36.24
2017-05-27T14:05:58.514Z,36.54
2017-05-27T14:07:09.165Z,36.24
2017-05-27T14:08:18.874Z,36.34
2017-05-27T14:09:28.534Z,36.24
2017-05-27T14:10:39.140Z,36.05
2017-05-27T14:11:49.479Z,36.05
2017-05-27T14:12:58.847Z,36.15
2017-05-27T14:14:08.851Z,36.34
2017-05-27T14:15:18.855Z,36.24
2017-05-27T14:16:29.487Z,36.15
2017-05-27T14:17:39.744Z,36.34
2017-05-27T14:18:49.918Z,36.24
2017-05-27T14:19:59.573Z,36.34
2017-05-27T14:21:10.213Z,36.34
2017-05-27T14:22:20.516Z,36.05
2017-05-27T14:23:30.441Z,36.05
2017-05-27T14:24:40.368Z,36.24
2017-05-27T14:25:50.606Z,36.24
2017-05-27T14:27:00.237Z,36.15
2017-05-27T14:28:09.568Z,36.15
2017-05-27T14:29:19.262Z,36.15
2017-05-27T14:30:29.900Z,36.24
2017-05-27T14:31:39.833Z,36.44
2017-05-27T14:32:50.455Z,36.24
2017-05-27T14:34:00.098Z,36.24
2017-05-27T14:35:10.055Z,36.34
2017-05-27T14:36:20.527Z,36.54
2017-05-27T14:37:30.130Z,36.54
2017-05-27T14:38:39.831Z,36.54
2017-05-27T14:39:50.174Z,36.44
2017-05-27T14:41:00.519Z,36.54
2017-05-27T14:42:10.463Z,36.54
2017-05-27T14:43:20.643Z,36.34
2017-05-27T14:44:31.069Z,36.44
2017-05-27T14:45:39.787Z,36.44
2017-05-27T14:46:49.737Z,36.44
2017-05-27T14:47:59.758Z,36.54
2017-05-27T14:49:10.010Z,36.54
2017-05-27T14:50:20.166Z,36.44
2017-05-27T14:51:29.655Z,36.63
2017-05-27T14:52:39.909Z,36.63
2017-05-27T14:53:49.229Z,36.34
2017-05-27T14:54:58.937Z,36.54
2017-05-27T14:56:08.987Z,36.54
2017-05-27T14:57:18.984Z,36.63
2017-05-27T14:58:29.285Z,36.54
2017-05-27T14:59:39.470Z,36.24
2017-05-27T15:00:49.805Z,36.34
2017-05-27T15:01:59.822Z,36.34